createdAt,value
2018-12-16T00:01:44.834Z,27.70
2018-12-16T00:04:13.204Z,24.63
2018-12-16T00:06:41.558Z,24.57
2018-12-16T00:09:09.965Z,22.43
2018-12-16T00:11:38.349Z,28.07
2018-12-16T00:14:06.706Z,24.43
2018-12-16T00:16:35.063Z,24.80
2018-12-16T00:19:03.483Z,23.87
2018-12-16T00:21:31.954Z,29.50
2018-12-16T00:24:00.344Z,21.37
2018-12-16T00:26:40.734Z,26.37
2018-12-16T00:29:09.077Z,22.10
2018-12-16T00:31:37.419Z,23.63
2018-12-16T00:34:05.883Z,22.57
2018-12-16T00:36:34.261Z,24.70
2018-12-16T00:39:02.876Z,27.13
2018-12-16T00:41:31.242Z,23.67
2018-12-16T00:43:59.594Z,30.57
2018-12-16T00:46:28.068Z,28.17
2018-12-16T00:48:56.500Z,30.43
2018-12-16T00:51:24.856Z,30.40
2018-12-16T00:53:53.248Z,34.17
2018-12-16T00:56:21.673Z,32.90
2018-12-16T00:58:50.023Z,35.77
2018-12-16T01:01:18.446Z,34.00
2018-12-16T01:03:46.819Z,30.50
2018-12-16T01:06:15.201Z,30.87
2018-12-16T01:08:44.214Z,30.50
2018-12-16T01:11:12.567Z,39.50
2018-12-16T01:13:40.943Z,31.30
2018-12-16T01:16:09.307Z,32.23
2018-12-16T01:18:37.664Z,31.53
2018-12-16T01:21:06.032Z,34.97
2018-12-16T01:23:34.370Z,36.73
2018-12-16T01:26:02.764Z,34.63
2018-12-16T01:28:31.226Z,33.27
2018-12-16T01:30:59.612Z,32.83
2018-12-16T01:33:27.978Z,35.50
2018-12-16T01:35:56.335Z,39.47
2018-12-16T01:38:24.698Z,32.33
2018-12-16T01:40:53.196Z,37.37
2018-12-16T01:43:21.562Z,36.60
2018-12-16T01:45:50.017Z,37.53
2018-12-16T01:48:18.365Z,37.17
2018-12-16T01:50:46.708Z,39.83
2018-12-16T01:53:15.102Z,39.30
2018-12-16T01:55:43.467Z,38.50
2018-12-16T01:58:11.802Z,41.07
2018-12-16T02:00:40.398Z,43.93
2018-12-16T02:03:08.738Z,42.83
2018-12-16T02:05:37.210Z,49.07
2018-12-16T02:08:05.678Z,46.43
2018-12-16T02:10:34.147Z,43.67
2018-12-16T02:13:02.541Z,45.87
2018-12-16T02:15:30.864Z,49.63
2018-12-16T02:17:59.223Z,47.93
2018-12-16T02:20:27.558Z,48.00
2018-12-16T02:22:57.063Z,44.37
2018-12-16T02:25:25.870Z,45.33
2018-12-16T02:27:54.215Z,42.37
2018-12-16T02:30:28.448Z,49.00
2018-12-16T02:32:56.965Z,40.97
2018-12-16T02:35:25.317Z,48.97
2018-12-16T02:37:53.698Z,43.63
2018-12-16T02:40:22.172Z,42.70
2018-12-16T02:42:50.571Z,40.60
2018-12-16T02:45:19.452Z,41.60
2018-12-16T02:47:49.125Z,42.87
2018-12-16T02:50:17.551Z,44.27
2018-12-16T02:52:45.932Z,43.87
2018-12-16T02:55:14.400Z,43.07
2018-12-16T02:57:42.751Z,40.63
2018-12-16T03:00:11.226Z,35.50
2018-12-16T03:02:39.552Z,40.47
2018-12-16T03:05:08.039Z,37.93
2018-12-16T03:07:36.390Z,37.93
2018-12-16T03:10:05.328Z,39.57
2018-12-16T03:12:33.680Z,43.40
2018-12-16T03:15:02.197Z,41.00
2018-12-16T03:17:30.545Z,40.37
2018-12-16T03:19:58.899Z,35.40
2018-12-16T03:22:27.274Z,40.80
2018-12-16T03:24:55.612Z,40.33
2018-12-16T03:27:23.993Z,38.60
2018-12-16T03:29:52.343Z,35.40
2018-12-16T03:32:20.816Z,37.50
2018-12-16T03:34:49.258Z,35.57
2018-12-16T03:37:17.627Z,30.90
2018-12-16T03:39:45.968Z,36.07
2018-12-16T03:42:14.295Z,40.37
2018-12-16T03:44:42.646Z,38.57
2018-12-16T03:47:11.028Z,36.47
2018-12-16T03:49:39.401Z,41.33
2018-12-16T03:52:07.812Z,39.00
2018-12-16T03:54:36.213Z,39.57
2018-12-16T03:57:04.568Z,36.30
2018-12-16T03:59:32.923Z,25.67
2018-12-16T04:02:01.281Z,31.80
2018-12-16T04:04:29.702Z,32.70
2018-12-16T04:06:58.055Z,36.13
2018-12-16T04:09:26.375Z,40.73
2018-12-16T04:11:54.778Z,28.43
2018-12-16T04:14:23.108Z,38.27
2018-12-16T04:16:51.440Z,34.67
2018-12-16T04:19:19.831Z,37.67
2018-12-16T04:21:48.191Z,36.03
2018-12-16T04:24:16.572Z,30.10
2018-12-16T04:26:44.912Z,36.80
2018-12-16T04:29:13.289Z,37.17
2018-12-16T04:31:41.628Z,34.33
2018-12-16T04:34:09.995Z,32.97
2018-12-16T04:36:38.378Z,40.53
2018-12-16T04:39:07.018Z,35.10
2018-12-16T04:41:35.547Z,36.83
2018-12-16T04:44:04.002Z,36.83
2018-12-16T04:46:32.364Z,33.43
2018-12-16T04:49:00.720Z,33.27
2018-12-16T04:51:29.098Z,32.40
2018-12-16T04:53:57.481Z,29.63
2018-12-16T04:56:25.815Z,34.33
2018-12-16T04:58:54.174Z,37.80
2018-12-16T05:01:22.511Z,32.73
2018-12-16T05:03:50.891Z,38.13
2018-12-16T05:06:19.687Z,36.33
2018-12-16T05:08:48.319Z,37.33
2018-12-16T05:11:16.759Z,37.83
2018-12-16T05:13:45.119Z,41.47
2018-12-16T05:16:13.482Z,38.27
2018-12-16T05:18:41.807Z,35.27
2018-12-16T05:21:10.175Z,39.40
2018-12-16T05:23:41.842Z,31.33
2018-12-16T05:26:08.906Z,39.87
2018-12-16T05:28:37.503Z,36.47
2018-12-16T05:31:05.839Z,38.83
2018-12-16T05:33:34.198Z,32.37
2018-12-16T05:36:02.658Z,36.37
2018-12-16T05:38:31.021Z,38.10
2018-12-16T05:40:59.396Z,41.03
2018-12-16T05:43:27.745Z,46.40
2018-12-16T05:45:56.093Z,37.77
2018-12-16T05:48:24.440Z,38.27
2018-12-16T05:50:52.793Z,45.23
2018-12-16T05:53:21.175Z,40.43
2018-12-16T05:55:49.531Z,41.27
2018-12-16T05:58:17.886Z,41.33
2018-12-16T06:00:46.235Z,37.77
2018-12-16T06:03:14.614Z,39.40
2018-12-16T06:05:43.042Z,45.73
2018-12-16T06:08:11.437Z,40.70
2018-12-16T06:10:39.793Z,44.33
2018-12-16T06:13:08.173Z,33.13
2018-12-16T06:15:36.596Z,35.50
2018-12-16T06:18:04.952Z,39.70
2018-12-16T06:20:33.295Z,41.10
2018-12-16T06:23:01.791Z,39.07
2018-12-16T06:25:30.144Z,33.43
2018-12-16T06:27:58.487Z,40.07
2018-12-16T06:30:29.195Z,37.97
2018-12-16T06:32:57.563Z,30.83
2018-12-16T06:35:25.897Z,31.53
2018-12-16T06:37:54.262Z,41.47
2018-12-16T06:40:22.637Z,39.53
2018-12-16T06:42:50.965Z,34.63
2018-12-16T06:45:19.331Z,42.23
2018-12-16T06:47:47.710Z,33.43
2018-12-16T06:50:16.063Z,34.87
2018-12-16T06:52:44.419Z,34.90
2018-12-16T06:55:12.783Z,36.33
2018-12-16T06:57:41.132Z,43.20
2018-12-16T07:00:09.578Z,32.50
2018-12-16T07:02:38.795Z,35.50
2018-12-16T07:05:07.292Z,40.53
2018-12-16T07:07:35.615Z,32.40
2018-12-16T07:10:05.053Z,54.83
2018-12-16T07:12:33.495Z,37.90
2018-12-16T07:15:01.913Z,36.40
2018-12-16T07:17:30.382Z,41.70
2018-12-16T07:19:58.707Z,41.77
2018-12-16T07:22:27.189Z,35.37
2018-12-16T07:24:55.595Z,40.10
2018-12-16T07:27:24.244Z,46.10
2018-12-16T07:29:52.739Z,37.80
2018-12-16T07:32:21.192Z,39.37
2018-12-16T07:34:49.601Z,44.20
2018-12-16T07:37:19.215Z,41.70
2018-12-16T07:39:47.822Z,45.60
2018-12-16T07:42:16.205Z,60.90
2018-12-16T07:44:44.672Z,61.63
2018-12-16T07:47:13.056Z,64.53
2018-12-16T07:49:41.504Z,58.10
2018-12-16T07:52:10.136Z,48.97
2018-12-16T07:54:38.624Z,53.57
2018-12-16T07:57:07.074Z,46.33
2018-12-16T07:59:35.423Z,40.10
2018-12-16T08:02:03.800Z,35.23
2018-12-16T08:04:32.156Z,41.57
2018-12-16T08:07:00.520Z,30.23
2018-12-16T08:09:28.888Z,38.27
2018-12-16T08:11:57.256Z,41.07
2018-12-16T08:14:25.628Z,46.80
2018-12-16T08:16:53.974Z,36.57
2018-12-16T08:19:22.322Z,36.53
2018-12-16T08:21:50.734Z,42.70
2018-12-16T08:24:23.173Z,43.30
2018-12-16T08:26:49.481Z,43.87
2018-12-16T08:29:17.817Z,33.07
2018-12-16T08:31:46.292Z,47.37
2018-12-16T08:34:14.622Z,35.60
2018-12-16T08:36:42.990Z,38.60
2018-12-16T08:39:11.538Z,32.17
2018-12-16T08:41:39.883Z,31.37
2018-12-16T08:44:08.345Z,45.97
2018-12-16T08:46:36.746Z,31.67
2018-12-16T08:49:05.121Z,35.83
2018-12-16T08:51:33.489Z,35.40
2018-12-16T08:54:01.857Z,36.77
2018-12-16T08:56:30.247Z,54.23
2018-12-16T08:58:58.606Z,80.27
2018-12-16T09:01:26.974Z,58.37
2018-12-16T09:03:56.038Z,51.27
2018-12-16T09:06:24.412Z,49.47
2018-12-16T09:08:53.149Z,38.13
2018-12-16T09:11:21.522Z,42.97
2018-12-16T09:13:49.905Z,40.93
2018-12-16T09:16:18.269Z,36.30
2018-12-16T09:18:46.705Z,86.83
2018-12-16T09:21:15.281Z,66.73
2018-12-16T09:23:43.619Z,60.37
2018-12-16T09:26:11.966Z,112.97
2018-12-16T09:28:40.341Z,173.63
2018-12-16T09:31:08.835Z,387.47
2018-12-16T09:33:37.163Z,143.97
2018-12-16T09:36:05.547Z,150.57
2018-12-16T09:38:33.911Z,633.93
2018-12-16T09:41:02.307Z,204.60
2018-12-16T09:43:30.674Z,227.60
2018-12-16T09:45:59.014Z,108.07
2018-12-16T09:48:27.351Z,88.07
2018-12-16T09:50:55.827Z,149.17
2018-12-16T09:53:24.190Z,98.63
2018-12-16T09:55:52.514Z,93.20
2018-12-16T09:58:20.877Z,131.63
2018-12-16T10:00:49.251Z,152.63
2018-12-16T10:03:17.603Z,183.70
2018-12-16T10:05:45.966Z,184.90
2018-12-16T10:08:14.333Z,142.73
2018-12-16T10:10:42.738Z,126.13
2018-12-16T10:13:11.105Z,111.83
2018-12-16T10:15:39.469Z,159.60
2018-12-16T10:18:07.835Z,169.57
2018-12-16T10:20:36.189Z,152.50
2018-12-16T10:23:04.529Z,189.77
2018-12-16T10:25:32.870Z,226.33
2018-12-16T10:28:01.234Z,119.93
2018-12-16T10:30:29.594Z,164.57
2018-12-16T10:32:57.960Z,88.93
2018-12-16T10:35:26.308Z,150.27
2018-12-16T10:37:54.663Z,124.73
2018-12-16T10:40:23.149Z,94.13
2018-12-16T10:42:51.481Z,90.37
2018-12-16T10:45:19.847Z,113.10
2018-12-16T10:47:48.184Z,93.93
2018-12-16T10:50:16.561Z,103.00
2018-12-16T10:52:44.893Z,96.33
2018-12-16T10:55:13.723Z,83.93
2018-12-16T10:57:42.094Z,98.93
2018-12-16T11:00:17.004Z,102.53
2018-12-16T11:02:45.369Z,91.83
2018-12-16T11:05:14.630Z,81.37
2018-12-16T11:07:42.999Z,76.93
2018-12-16T11:10:11.468Z,82.07
2018-12-16T11:12:40.349Z,86.53
2018-12-16T11:15:08.690Z,69.20
2018-12-16T11:17:37.050Z,53.87
2018-12-16T11:20:05.644Z,140.70
2018-12-16T11:22:34.088Z,55.77
2018-12-16T11:25:05.751Z,53.70
2018-12-16T11:27:32.780Z,68.60
2018-12-16T11:30:01.151Z,57.27
2018-12-16T11:32:29.636Z,55.97
2018-12-16T11:34:57.983Z,75.77
2018-12-16T11:37:26.325Z,59.17
2018-12-16T11:39:54.679Z,89.97
2018-12-16T11:42:23.036Z,49.97
2018-12-16T11:44:51.435Z,63.80
2018-12-16T11:47:19.805Z,65.80
2018-12-16T11:49:48.293Z,74.17
2018-12-16T11:52:16.668Z,119.43
2018-12-16T11:54:45.040Z,100.77
2018-12-16T11:57:13.402Z,69.63
2018-12-16T11:59:42.233Z,97.60
2018-12-16T12:02:10.589Z,158.30
2018-12-16T12:04:38.970Z,112.90
2018-12-16T12:07:07.454Z,157.97
2018-12-16T12:09:35.818Z,169.70
2018-12-16T12:12:04.251Z,188.67
2018-12-16T12:14:32.603Z,119.83
2018-12-16T12:17:00.970Z,171.83
2018-12-16T12:19:37.711Z,135.37
2018-12-16T12:22:06.195Z,170.00
2018-12-16T12:24:34.608Z,139.50
2018-12-16T12:27:02.990Z,236.67
2018-12-16T12:29:31.366Z,135.57
2018-12-16T12:31:59.749Z,116.47
2018-12-16T12:34:28.127Z,269.37
2018-12-16T12:36:56.496Z,301.07
2018-12-16T12:39:24.881Z,336.50
2018-12-16T12:41:53.251Z,252.67
2018-12-16T12:44:21.798Z,96.63
2018-12-16T12:46:50.122Z,161.87
2018-12-16T12:49:18.486Z,126.00
2018-12-16T12:51:47.031Z,106.93
2018-12-16T12:54:15.393Z,180.60
2018-12-16T12:56:43.786Z,224.57
2018-12-16T12:59:12.122Z,215.57
2018-12-16T13:01:40.530Z,164.93
2018-12-16T13:04:08.880Z,97.63
2018-12-16T13:06:37.248Z,57.20
2018-12-16T13:09:07.821Z,153.70
2018-12-16T13:11:36.211Z,124.50
2018-12-16T13:14:04.812Z,132.43
2018-12-16T13:16:33.392Z,145.50
2018-12-16T13:19:03.894Z,164.27
2018-12-16T13:21:32.290Z,197.73
2018-12-16T13:24:00.688Z,246.13
2018-12-16T13:26:29.190Z,186.17
2018-12-16T13:28:57.563Z,174.33
2018-12-16T13:31:26.534Z,221.17
2018-12-16T13:33:54.927Z,227.73
2018-12-16T13:36:23.404Z,235.60
2018-12-16T13:38:51.779Z,180.00
2018-12-16T13:41:20.291Z,183.73
2018-12-16T13:43:48.740Z,83.43
2018-12-16T13:46:17.119Z,69.40
2018-12-16T13:48:45.478Z,87.67
2018-12-16T13:51:14.060Z,73.03
2018-12-16T13:53:42.471Z,52.17
2018-12-16T13:56:10.860Z,59.77
2018-12-16T13:58:39.261Z,85.27
2018-12-16T14:01:07.669Z,63.27
2018-12-16T14:03:36.015Z,57.33
2018-12-16T14:06:04.563Z,51.03
2018-12-16T14:08:32.996Z,36.03
2018-12-16T14:11:01.546Z,42.77
2018-12-16T14:13:30.128Z,32.30
2018-12-16T14:15:58.656Z,32.43
2018-12-16T14:18:27.066Z,34.27
2018-12-16T14:20:55.573Z,40.47
2018-12-16T14:23:23.986Z,27.43
2018-12-16T14:25:52.350Z,33.50
2018-12-16T14:28:20.689Z,63.20
2018-12-16T14:30:49.403Z,257.30
2018-12-16T14:33:18.033Z,26.17
2018-12-16T14:35:46.417Z,19.27
2018-12-16T14:38:15.176Z,39.17
2018-12-16T14:40:43.805Z,28.03
2018-12-16T14:43:12.177Z,34.27
2018-12-16T14:45:40.555Z,21.40
2018-12-16T14:48:08.919Z,228.63
2018-12-16T14:50:37.277Z,441.60
2018-12-16T14:53:05.626Z,110.30
2018-12-16T14:55:34.127Z,118.43
2018-12-16T14:58:02.473Z,33.90
2018-12-16T15:00:30.828Z,32.60
2018-12-16T15:02:59.160Z,36.63
2018-12-16T15:05:27.573Z,42.67
2018-12-16T15:07:55.941Z,36.60
2018-12-16T15:10:24.306Z,27.63
2018-12-16T15:12:52.690Z,28.50
2018-12-16T15:15:21.466Z,21.70
2018-12-16T15:17:49.957Z,20.37
2018-12-16T15:20:18.378Z,31.40
2018-12-16T15:22:46.879Z,100.43
2018-12-16T15:25:15.250Z,380.70
2018-12-16T15:27:43.585Z,113.43
2018-12-16T15:30:12.553Z,227.40
2018-12-16T15:32:40.888Z,120.90
2018-12-16T15:35:09.247Z,132.20
2018-12-16T15:37:37.618Z,130.17
2018-12-16T15:40:06.860Z,135.57
2018-12-16T15:42:35.227Z,264.23
2018-12-16T15:45:03.837Z,160.37
2018-12-16T15:47:32.200Z,245.93
2018-12-16T15:50:00.531Z,108.33
2018-12-16T15:52:28.867Z,71.47
2018-12-16T15:54:57.211Z,82.07
2018-12-16T15:57:25.571Z,132.97
2018-12-16T15:59:53.934Z,172.13
2018-12-16T16:02:22.352Z,45.37
2018-12-16T16:04:50.758Z,98.17
2018-12-16T16:07:19.124Z,56.77
2018-12-16T16:09:47.505Z,393.30
2018-12-16T16:12:15.844Z,73.73
2018-12-16T16:14:44.195Z,78.20
2018-12-16T16:17:12.559Z,81.73
2018-12-16T16:19:41.006Z,286.07
2018-12-16T16:22:09.367Z,228.10
2018-12-16T16:24:37.715Z,162.53
2018-12-16T16:27:06.173Z,249.47
2018-12-16T16:29:34.521Z,285.90
2018-12-16T16:32:02.844Z,277.37
2018-12-16T16:34:31.211Z,146.10
2018-12-16T16:36:59.555Z,165.03
2018-12-16T16:39:34.561Z,133.50
2018-12-16T16:42:02.897Z,124.43
2018-12-16T16:44:31.282Z,114.97
2018-12-16T16:46:59.741Z,260.47
2018-12-16T16:49:28.106Z,251.40
2018-12-16T16:51:56.448Z,409.13
2018-12-16T16:54:24.799Z,317.53
2018-12-16T16:56:53.259Z,115.63
2018-12-16T16:59:21.634Z,107.33
2018-12-16T17:01:50.000Z,120.30
2018-12-16T17:04:18.380Z,69.67
2018-12-16T17:06:46.897Z,38.57
2018-12-16T17:09:15.280Z,31.20
2018-12-16T17:11:43.619Z,52.97
2018-12-16T17:14:11.979Z,60.37
2018-12-16T17:16:40.328Z,71.20
2018-12-16T17:19:08.774Z,70.70
2018-12-16T17:21:37.641Z,60.90
2018-12-16T17:24:05.991Z,72.53
2018-12-16T17:26:34.369Z,63.93
2018-12-16T17:29:02.703Z,75.50
2018-12-16T17:31:31.071Z,87.10
2018-12-16T17:33:59.560Z,72.73
2018-12-16T17:36:27.904Z,55.67
2018-12-16T17:38:56.336Z,64.33
2018-12-16T17:41:24.679Z,55.23
2018-12-16T17:43:53.043Z,68.00
2018-12-16T17:46:21.418Z,82.10
2018-12-16T17:48:49.877Z,81.23
2018-12-16T17:51:18.543Z,81.30
2018-12-16T17:53:46.924Z,95.50
2018-12-16T17:56:15.305Z,111.13
2018-12-16T17:58:43.677Z,71.43
2018-12-16T18:01:12.281Z,57.30
2018-12-16T18:03:40.628Z,47.30
2018-12-16T18:06:09.169Z,43.07
2018-12-16T18:08:37.516Z,40.53
2018-12-16T18:11:05.855Z,42.60
2018-12-16T18:13:34.244Z,66.63
2018-12-16T18:16:02.597Z,64.13
2018-12-16T18:18:31.073Z,83.03
2018-12-16T18:20:59.429Z,44.07
2018-12-16T18:23:29.809Z,133.77
2018-12-16T18:25:58.153Z,69.73
2018-12-16T18:28:26.522Z,69.83
2018-12-16T18:30:54.906Z,64.13
2018-12-16T18:33:23.500Z,69.37
2018-12-16T18:35:51.903Z,104.87
2018-12-16T18:38:20.358Z,200.80
2018-12-16T18:40:48.724Z,57.80
2018-12-16T18:43:17.060Z,68.07
2018-12-16T18:45:45.427Z,38.90
2018-12-16T18:48:13.821Z,49.83
2018-12-16T18:50:42.172Z,54.27
2018-12-16T18:53:10.640Z,39.20
2018-12-16T18:55:39.006Z,45.43
2018-12-16T18:58:07.517Z,45.77
2018-12-16T19:00:35.880Z,62.03
2018-12-16T19:03:04.261Z,41.40
2018-12-16T19:05:32.622Z,48.60
2018-12-16T19:08:01.035Z,50.13
2018-12-16T19:10:29.400Z,56.40
2018-12-16T19:12:57.767Z,46.10
2018-12-16T19:15:26.500Z,44.67
2018-12-16T19:17:54.855Z,44.50
2018-12-16T19:20:23.259Z,43.53
2018-12-16T19:22:51.632Z,44.93
2018-12-16T19:25:19.994Z,41.67
2018-12-16T19:27:48.363Z,52.63
2018-12-16T19:30:16.715Z,51.10
2018-12-16T19:32:45.102Z,33.97
2018-12-16T19:35:13.473Z,42.20
2018-12-16T19:37:41.904Z,43.57
2018-12-16T19:40:10.303Z,45.03
2018-12-16T19:42:38.698Z,37.93
2018-12-16T19:45:07.396Z,33.77
2018-12-16T19:47:35.774Z,33.43
2018-12-16T19:50:04.839Z,28.70
2018-12-16T19:52:33.248Z,55.33
2018-12-16T19:55:02.090Z,32.97
2018-12-16T19:57:30.472Z,43.73
2018-12-16T19:59:58.913Z,62.00
2018-12-16T20:02:27.418Z,63.60
2018-12-16T20:05:01.002Z,56.90
2018-12-16T20:07:29.379Z,59.23
2018-12-16T20:09:57.804Z,47.47
2018-12-16T20:12:26.198Z,46.93
2018-12-16T20:14:54.604Z,50.00
2018-12-16T20:17:23.001Z,41.63
2018-12-16T20:19:51.403Z,61.57
2018-12-16T20:22:19.783Z,30.20
2018-12-16T20:24:48.183Z,21.93
2018-12-16T20:27:16.659Z,29.07
2018-12-16T20:29:45.034Z,34.20
2018-12-16T20:32:13.425Z,45.70
2018-12-16T20:34:41.767Z,44.17
2018-12-16T20:37:10.173Z,49.43
2018-12-16T20:39:38.520Z,46.33
2018-12-16T20:42:06.888Z,42.50
2018-12-16T20:44:35.239Z,43.37
2018-12-16T20:47:03.606Z,30.93
2018-12-16T20:49:32.030Z,16.50
2018-12-16T20:52:00.412Z,37.97
2018-12-16T20:54:28.762Z,19.80
2018-12-16T20:56:57.139Z,30.27
2018-12-16T20:59:25.530Z,42.63
2018-12-16T21:01:54.030Z,47.10
2018-12-16T21:04:22.411Z,31.27
2018-12-16T21:06:50.792Z,20.13
2018-12-16T21:09:19.204Z,25.37
2018-12-16T21:11:53.036Z,41.57
2018-12-16T21:14:26.807Z,38.57
2018-12-16T21:17:00.516Z,26.93
2018-12-16T21:19:29.366Z,29.90
2018-12-16T21:21:57.722Z,33.77
2018-12-16T21:24:26.102Z,32.43
2018-12-16T21:26:54.848Z,32.93
2018-12-16T21:29:23.232Z,34.53
2018-12-16T21:31:51.657Z,25.27
2018-12-16T21:34:20.012Z,33.33
2018-12-16T21:36:48.369Z,28.00
2018-12-16T21:39:16.726Z,32.13
2018-12-16T21:41:45.091Z,19.07
2018-12-16T21:44:13.445Z,14.43
2018-12-16T21:46:41.780Z,18.83
2018-12-16T21:49:10.376Z,16.93
2018-12-16T21:51:38.713Z,15.73
2018-12-16T21:54:07.035Z,19.10
2018-12-16T21:56:35.392Z,38.77
2018-12-16T21:59:03.875Z,51.90
2018-12-16T22:01:32.321Z,45.47
2018-12-16T22:04:00.649Z,50.27
2018-12-16T22:06:29.182Z,44.60
2018-12-16T22:08:57.569Z,41.63
2018-12-16T22:11:25.911Z,36.50
2018-12-16T22:13:54.251Z,35.10
2018-12-16T22:16:22.593Z,39.67
2018-12-16T22:18:50.991Z,26.40
2018-12-16T22:21:19.355Z,24.10
2018-12-16T22:23:47.732Z,30.40
2018-12-16T22:26:16.102Z,25.60
2018-12-16T22:28:44.448Z,41.83
2018-12-16T22:31:12.817Z,28.13
2018-12-16T22:33:41.176Z,30.87
2018-12-16T22:36:09.525Z,34.80
2018-12-16T22:38:38.917Z,42.60
2018-12-16T22:41:07.275Z,33.37
2018-12-16T22:43:35.638Z,32.17
2018-12-16T22:46:04.092Z,29.33
2018-12-16T22:48:32.454Z,30.80
2018-12-16T22:51:00.791Z,42.13
2018-12-16T22:53:29.140Z,42.37
2018-12-16T22:55:57.467Z,26.73
2018-12-16T22:58:25.810Z,30.83
2018-12-16T23:01:00.042Z,28.20
2018-12-16T23:03:28.356Z,21.30
2018-12-16T23:05:56.695Z,27.13
2018-12-16T23:08:25.019Z,27.77
2018-12-16T23:10:53.377Z,25.93
2018-12-16T23:13:21.755Z,30.77
2018-12-16T23:15:50.146Z,40.40
2018-12-16T23:18:18.480Z,58.63
2018-12-16T23:20:46.834Z,29.97
2018-12-16T23:23:15.248Z,22.27
2018-12-16T23:25:43.568Z,19.20
2018-12-16T23:28:11.905Z,11.50
2018-12-16T23:30:40.231Z,15.60
2018-12-16T23:33:08.629Z,13.13
2018-12-16T23:35:36.966Z,18.83
2018-12-16T23:38:05.302Z,22.87
2018-12-16T23:40:33.769Z,19.93
2018-12-16T23:43:02.104Z,18.90
2018-12-16T23:45:30.479Z,13.87
2018-12-16T23:47:58.802Z,18.00
2018-12-16T23:50:27.116Z,20.67
2018-12-16T23:52:55.455Z,35.40
2018-12-16T23:55:23.808Z,14.37
2018-12-16T23:57:52.160Z,39.97
